SC1A weather

Canchones West Airport
Canchones, Tarapac√° Region, Chile

Public forecast

Using degrees Celsius for public forecast. Weather courtesy of forecast.io.

Closest aviation weather report (METAR) to Canchones West Airport

Closest report is Diego Aracena Airport, 31.0 nm (57.5 km) WSW. Retrieved 2020/06/01 00:00 UTC (4 minutes ago):

SCDA 010000Z 21012KT CAVOK 19/15 Q1018

Closest aviation forecast (TAF) to Canchones West Airport

Closest forecast is Diego Aracena Airport, 31.0 nm (57.5 km) WSW. Retrieved 2020-06-01 00:00 UTC (4 minutes ago):

TAF SCDA 312215Z 0100/0124 21010KT CAVOK TN15/0108Z TX21/0119Z BECMG 0102/0104 20004KT BECMG 0110/0112 14004KT BECMG 0114/0116 22015KT BECMG 0121/0123 BKN030